Terminal Aerodrome Forecast
Issued by NWS Mobile, AL

Home | Current Version | Previous Version | Text Only | Print | Product List | Glossary On
Versions: 1 2 3 4 5 6 7 8 9 10 11 12 13 14 15 16 17 18 19 20 21 22 23 24 25 26 27 28 29 30 31 32 33 34 35 36 37 38 39 40 41 42
806
FTUS44 KMOB 252341
TAFMOB
TAF
KMOB 252341Z 2600/2624 10007KT P6SM VCSH BKN045 OVC050
     FM260300 17004KT 4SM BR OVC020
      TEMPO 2608/2612 1SM SHRA BR OVC010
     FM261500 31007KT 4SM BR SCT009 OVC020=

USA.gov is the U.S. government's official web portal to all federal, state and local government web resources and services.